createdAt,value
2023-03-20T00:01:16.076Z,12.05
2023-03-20T00:06:16.264Z,12.12
2023-03-20T00:11:22.824Z,12.00
2023-03-20T00:16:19.963Z,12.13
2023-03-20T00:21:18.360Z,12.06
2023-03-20T00:26:17.722Z,12.15
2023-03-20T00:31:19.244Z,12.32
2023-03-20T00:36:16.198Z,12.27
2023-03-20T00:41:20.248Z,12.25
2023-03-20T00:46:16.982Z,12.23
2023-03-20T00:51:13.781Z,12.30
2023-03-20T00:56:23.830Z,12.20
2023-03-20T01:01:21.194Z,12.14
2023-03-20T01:06:18.388Z,12.17
2023-03-20T01:11:17.749Z,12.23
2023-03-20T01:16:19.421Z,12.22
2023-03-20T01:21:17.783Z,12.03
2023-03-20T01:26:21.277Z,12.05
2023-03-20T01:31:18.128Z,12.12
2023-03-20T01:36:16.379Z,12.07
2023-03-20T01:41:16.054Z,12.09
2023-03-20T01:46:19.008Z,12.00
2023-03-20T01:51:19.165Z,12.00
2023-03-20T01:56:17.588Z,12.07
2023-03-20T02:01:18.565Z,11.99
2023-03-20T02:06:16.957Z,11.99
2023-03-20T02:11:31.760Z,11.89
2023-03-20T02:16:28.487Z,11.56
2023-03-20T02:21:51.067Z,11.43
2023-03-20T02:26:54.486Z,11.42
2023-03-20T02:32:12.432Z,11.50
2023-03-20T02:37:39.421Z,11.53
2023-03-20T02:42:40.484Z,11.61
2023-03-20T02:47:41.335Z,11.52
2023-03-20T02:52:50.203Z,11.33
2023-03-20T02:57:54.769Z,11.58
2023-03-20T03:02:53.425Z,11.65
2023-03-20T03:07:56.838Z,11.88
2023-03-20T03:12:54.716Z,11.78
2023-03-20T03:17:51.944Z,11.80
2023-03-20T03:22:50.565Z,11.68
2023-03-20T03:27:50.779Z,11.64
2023-03-20T03:32:50.115Z,11.60
2023-03-20T03:37:52.269Z,11.71
2023-03-20T03:42:53.853Z,11.82
2023-03-20T03:47:52.337Z,11.73
2023-03-20T03:52:50.363Z,11.51
2023-03-20T03:57:50.057Z,11.60
2023-03-20T04:02:51.685Z,11.61
2023-03-20T04:07:52.801Z,11.70
2023-03-20T04:12:49.851Z,11.96
2023-03-20T04:17:49.452Z,11.97
2023-03-20T04:22:48.101Z,11.83
2023-03-20T04:27:46.280Z,11.58
2023-03-20T04:32:52.880Z,11.45
2023-03-20T04:38:02.979Z,11.41
2023-03-20T04:43:02.746Z,11.56
2023-03-20T04:48:00.338Z,11.55
2023-03-20T04:52:58.064Z,11.63
2023-03-20T04:57:56.308Z,11.48
2023-03-20T05:02:54.195Z,11.44
2023-03-20T05:07:51.481Z,11.20
2023-03-20T05:12:58.175Z,11.00
2023-03-20T05:18:06.929Z,11.21
2023-03-20T05:23:22.419Z,11.28
2023-03-20T05:28:42.947Z,11.06
2023-03-20T05:34:05.259Z,11.34
2023-03-20T05:39:23.667Z,11.49
2023-03-20T05:44:41.342Z,11.36
2023-03-20T05:49:56.397Z,11.37
2023-03-20T05:55:03.110Z,11.54
2023-03-20T06:00:19.636Z,11.45
2023-03-20T06:05:16.729Z,11.41
2023-03-20T06:10:20.127Z,11.67
2023-03-20T06:15:19.249Z,11.73
2023-03-20T06:20:23.728Z,11.88
2023-03-20T06:25:21.023Z,11.92
2023-03-20T06:30:19.596Z,11.99
2023-03-20T06:35:18.059Z,12.05
2023-03-20T06:40:17.618Z,12.09
2023-03-20T06:45:14.696Z,12.05
2023-03-20T06:50:27.961Z,11.28
2023-03-20T06:55:24.837Z,10.84
2023-03-20T07:00:22.850Z,10.38
2023-03-20T07:05:22.343Z,10.36
2023-03-20T07:10:37.803Z,10.83
2023-03-20T08:11:55.367Z,12.97
2023-03-20T08:23:43.013Z,12.58
2023-03-20T08:29:09.267Z,12.84
2023-03-20T09:43:57.607Z,14.41
2023-03-20T09:48:58.496Z,14.51
2023-03-20T09:53:59.226Z,14.54
2023-03-20T09:59:02.197Z,14.76
2023-03-20T10:04:01.163Z,14.78
2023-03-20T10:08:58.472Z,14.87
2023-03-20T10:14:07.229Z,14.82
2023-03-20T10:19:13.776Z,15.01
2023-03-20T10:24:18.353Z,15.03
2023-03-20T10:29:21.418Z,15.16
2023-03-20T10:34:28.122Z,15.23
2023-03-20T10:39:35.629Z,15.33
2023-03-20T10:44:34.997Z,15.45
2023-03-20T10:49:36.847Z,15.53
2023-03-20T10:54:36.414Z,15.65
2023-03-20T10:59:36.860Z,15.79
2023-03-20T11:04:34.633Z,15.81
2023-03-20T11:09:49.561Z,15.90
2023-03-20T11:14:47.648Z,15.98
2023-03-20T11:19:45.259Z,16.01
2023-03-20T11:24:43.155Z,15.99
2023-03-20T11:29:41.487Z,16.07
2023-03-20T11:35:11.589Z,16.14
2023-03-20T11:40:14.781Z,16.22
2023-03-20T11:45:16.167Z,16.23
2023-03-20T11:50:51.792Z,16.33
2023-03-20T11:56:12.695Z,16.49
2023-03-20T12:01:13.114Z,16.48
2023-03-20T12:06:18.795Z,16.60
2023-03-20T12:11:25.076Z,16.62
2023-03-20T12:16:24.541Z,16.58
2023-03-20T12:21:23.206Z,16.66
2023-03-20T12:26:25.486Z,16.66
2023-03-20T12:31:25.528Z,16.63
2023-03-20T12:36:25.765Z,16.70
2023-03-20T12:41:25.218Z,16.59
2023-03-20T12:46:26.175Z,16.71
2023-03-20T12:51:27.739Z,16.79
2023-03-20T12:56:31.795Z,16.78
2023-03-20T13:01:30.792Z,16.83
2023-03-20T13:06:36.143Z,16.89
2023-03-20T13:11:36.612Z,16.95
2023-03-20T13:16:40.592Z,17.00
2023-03-20T13:21:40.065Z,17.11
2023-03-20T13:26:40.052Z,17.37
2023-03-20T13:31:42.791Z,17.33
2023-03-20T13:36:45.387Z,17.43
2023-03-20T13:41:47.533Z,17.64
2023-03-20T13:46:46.869Z,17.61
2023-03-20T13:51:48.141Z,17.87
2023-03-20T13:56:52.396Z,17.66
2023-03-20T14:01:55.409Z,17.64
2023-03-20T14:06:53.851Z,17.60
2023-03-20T14:11:53.741Z,17.54
2023-03-20T14:17:00.326Z,17.57
2023-03-20T14:22:06.665Z,17.48
2023-03-20T14:27:05.776Z,17.40
2023-03-20T14:32:07.170Z,17.44
2023-03-20T14:37:05.049Z,17.38
2023-03-20T14:42:23.705Z,17.33
2023-03-20T14:47:37.022Z,17.30
2023-03-20T14:52:44.004Z,17.29
2023-03-20T14:57:56.496Z,17.26
2023-03-20T15:03:04.876Z,17.27
2023-03-20T15:08:05.115Z,17.31
2023-03-20T15:13:03.480Z,17.36
2023-03-20T15:18:04.987Z,17.31
2023-03-20T15:23:02.600Z,17.50
2023-03-20T15:27:59.701Z,17.55
2023-03-20T15:32:57.531Z,17.57
2023-03-20T15:37:56.894Z,17.66
2023-03-20T15:42:54.284Z,17.62
2023-03-20T15:48:00.508Z,17.56
2023-03-20T15:52:57.470Z,17.51
2023-03-20T15:57:56.093Z,17.47
2023-03-20T16:02:53.795Z,17.22
2023-03-20T16:07:57.464Z,17.28
2023-03-20T16:12:56.024Z,17.28
2023-03-20T16:17:54.021Z,17.23
2023-03-20T16:22:56.052Z,17.22
2023-03-20T16:27:54.514Z,17.20
2023-03-20T16:32:55.028Z,17.19
2023-03-20T16:37:56.633Z,17.16
2023-03-20T16:42:55.888Z,17.11
2023-03-20T16:48:12.669Z,17.01
2023-03-20T16:53:11.447Z,16.88
2023-03-20T16:58:08.168Z,16.82
2023-03-20T17:03:12.945Z,16.85
2023-03-20T17:08:13.521Z,16.89
2023-03-20T17:13:10.348Z,16.91
2023-03-20T17:18:10.590Z,16.89
2023-03-20T17:23:11.844Z,16.84
2023-03-20T17:28:11.341Z,16.85
2023-03-20T17:33:11.457Z,16.85
2023-03-20T17:38:10.477Z,16.83
2023-03-20T17:43:10.213Z,16.72
2023-03-20T17:48:17.232Z,16.65
2023-03-20T17:53:16.299Z,16.48
2023-03-20T17:58:52.383Z,16.44
2023-03-20T18:03:51.372Z,16.44
2023-03-20T18:08:48.092Z,16.38
2023-03-20T18:13:45.541Z,16.41
2023-03-20T18:18:42.703Z,16.41
2023-03-20T18:23:39.388Z,16.37
2023-03-20T18:28:35.961Z,16.40
2023-03-20T18:33:33.301Z,16.37
2023-03-20T18:38:32.835Z,16.25
2023-03-20T18:43:31.852Z,16.17
2023-03-20T18:48:30.060Z,16.11
2023-03-20T18:53:27.403Z,16.17
2023-03-20T18:58:24.656Z,16.03
2023-03-20T19:03:24.162Z,16.14
2023-03-20T19:08:21.496Z,16.17
2023-03-20T19:13:19.786Z,16.06
2023-03-20T19:18:17.458Z,15.99
2023-03-20T19:23:14.780Z,16.09
2023-03-20T19:28:21.527Z,15.97
2023-03-20T19:33:19.739Z,15.96
2023-03-20T19:38:17.294Z,15.97
2023-03-20T19:43:15.494Z,15.94
2023-03-20T19:48:15.390Z,15.93
2023-03-20T19:53:14.053Z,15.77
2023-03-20T19:58:18.474Z,15.82
2023-03-20T20:03:18.640Z,15.80
2023-03-20T20:08:28.353Z,15.72
2023-03-20T20:13:34.194Z,15.74
2023-03-20T20:18:30.916Z,15.74
2023-03-20T20:23:28.454Z,15.77
2023-03-20T20:28:25.444Z,15.79
2023-03-20T20:33:28.148Z,15.64
2023-03-20T20:38:45.075Z,15.67
2023-03-20T20:44:13.997Z,15.61
2023-03-20T20:49:07.056Z,15.46
2023-03-20T20:54:13.443Z,15.25
2023-03-20T20:59:10.893Z,15.13
2023-03-20T21:04:07.694Z,15.02
2023-03-20T21:09:04.409Z,15.11
2023-03-20T21:14:01.171Z,15.06
2023-03-20T21:18:58.638Z,14.88
2023-03-20T21:23:55.489Z,14.88
2023-03-20T21:28:53.442Z,14.96
2023-03-20T21:33:53.785Z,14.83
2023-03-20T21:39:07.515Z,14.80
2023-03-20T21:44:07.349Z,14.76
2023-03-20T21:49:54.533Z,14.94
2023-03-20T21:55:00.583Z,14.51
2023-03-20T22:00:19.184Z,14.35
2023-03-20T22:11:06.287Z,14.30
2023-03-20T22:16:04.711Z,14.43
2023-03-20T22:21:33.802Z,14.56
2023-03-20T22:32:02.464Z,14.81
2023-03-20T22:42:32.848Z,14.82
2023-03-20T22:47:17.698Z,14.19
2023-03-20T22:52:27.106Z,14.27
2023-03-20T22:57:40.241Z,14.23
2023-03-20T23:02:41.928Z,14.30
2023-03-20T23:07:38.634Z,14.32
2023-03-20T23:12:38.028Z,14.33
2023-03-20T23:17:34.729Z,14.04
2023-03-20T23:22:31.378Z,14.27
2023-03-20T23:27:29.934Z,14.45
2023-03-20T23:32:28.886Z,14.07
2023-03-20T23:37:25.571Z,14.12
2023-03-20T23:42:30.312Z,14.11
2023-03-20T23:47:38.428Z,14.30
2023-03-20T23:52:45.968Z,14.11
2023-03-20T23:57:46.874Z,13.47
